Time;durP1;ratioP1;P1;durP2;ratioP2;P2;SDS_P1;SDS_P2;PMS_P1;PMS_P2;Temp;Humidity;BMP_temperature;BMP_pressure;BME280_temperature;BME280_humidity;BME280_pressure;Samples;Min_cycle;Max_cycle;Signal;HPM_P1;HPM_P2
2022/03/11 00:00:09;;;;;;;9.97;8.17;;;;;;;3.30;64.73;102717.25;2087766;28;20234;-69
2022/03/11 00:01:10;;;;;;;9.70;8.40;;;;;;;3.35;65.01;102717.06;2088055;28;20183;-69
2022/03/11 00:02:10;;;;;;;9.60;8.43;;;;;;;3.34;63.86;102726.41;2088457;28;20180;-69
2022/03/11 00:03:12;;;;;;;11.47;9.10;;;;;;;3.21;64.19;102711.84;2087962;28;20172;-69
2022/03/11 00:04:13;;;;;;;11.02;8.75;;;;;;;3.01;64.81;102707.13;2088513;28;20176;-69
2022/03/11 00:05:14;;;;;;;10.10;8.30;;;;;;;3.16;64.80;102716.69;2088086;28;20262;-69
2022/03/11 00:06:14;;;;;;;10.03;8.33;;;;;;;3.18;64.61;102726.19;2087929;28;20169;-69
2022/03/11 00:07:15;;;;;;;10.47;8.07;;;;;;;3.19;64.71;102719.56;2088433;28;20670;-69
2022/03/11 00:08:16;;;;;;;9.75;8.27;;;;;;;3.26;64.20;102722.59;2087912;28;20251;-69
2022/03/11 00:09:17;;;;;;;9.05;7.90;;;;;;;3.26;64.67;102724.53;2088621;28;20259;-69
2022/03/11 00:10:18;;;;;;;8.27;7.37;;;;;;;3.16;64.83;102703.00;2088003;28;20172;-69
2022/03/11 00:11:18;;;;;;;9.83;8.20;;;;;;;2.82;64.49;102638.28;2088525;28;20180;-69
2022/03/11 00:12:19;;;;;;;10.07;7.70;;;;;;;2.65;64.84;102611.00;2088479;28;20176;-69
2022/03/11 00:13:19;;;;;;;8.03;7.23;;;;;;;1.97;64.36;102493.75;2087860;28;20220;-69
2022/03/11 00:14:20;;;;;;;9.00;8.10;;;;;;;2.87;63.94;102631.81;2087886;28;20180;-68
2022/03/11 00:15:21;;;;;;;9.70;7.27;;;;;;;3.48;63.87;102722.28;2087973;28;20176;-69
2022/03/11 00:16:21;;;;;;;8.48;7.53;;;;;;;3.48;64.08;102722.28;2088143;28;20179;-69
2022/03/11 00:17:23;;;;;;;9.53;7.47;;;;;;;3.52;64.05;102716.91;2088444;28;20678;-69
2022/03/11 00:18:23;;;;;;;8.52;6.97;;;;;;;3.54;64.40;102711.94;2087894;28;20185;-69
2022/03/11 00:19:24;;;;;;;8.07;7.07;;;;;;;3.58;64.53;102718.31;2088025;28;20183;-69
2022/03/11 00:20:24;;;;;;;7.83;6.60;;;;;;;3.59;63.84;102719.94;2088570;28;20168;-69
2022/03/11 00:21:25;;;;;;;8.60;7.17;;;;;;;3.63;63.64;102726.34;2089083;28;20256;-69
2022/03/11 00:22:26;;;;;;;6.87;6.13;;;;;;;3.65;63.00;102718.59;2089571;28;20172;-69
2022/03/11 00:23:26;;;;;;;8.50;6.97;;;;;;;3.64;62.68;102719.75;2089280;28;20553;-69
2022/03/11 00:24:27;;;;;;;7.17;6.17;;;;;;;3.50;62.10;102698.06;2090053;28;20669;-69
2022/03/11 00:25:30;;;;;;;7.07;6.38;;;;;;;3.59;62.91;102722.69;2089569;28;20191;-68
2022/03/11 00:26:32;;;;;;;7.40;6.40;;;;;;;3.43;63.34;102683.28;2089732;28;20593;-69
2022/03/11 00:27:32;;;;;;;8.68;6.25;;;;;;;3.66;63.34;102722.94;2089448;28;20180;-68
2022/03/11 00:28:33;;;;;;;7.17;6.37;;;;;;;3.60;62.82;102713.31;2089197;28;20212;-69
2022/03/11 00:29:34;;;;;;;7.93;6.00;;;;;;;3.65;62.37;102716.66;2089930;28;20728;-69
2022/03/11 00:30:34;;;;;;;7.23;6.40;;;;;;;3.65;62.81;102721.34;2089979;28;20682;-69
2022/03/11 00:31:35;;;;;;;7.73;6.77;;;;;;;3.50;62.81;102692.56;2090019;28;20204;-69
2022/03/11 00:32:36;;;;;;;7.43;6.37;;;;;;;3.68;63.20;102710.50;2088735;28;20654;-69
2022/03/11 00:33:37;;;;;;;7.57;6.28;;;;;;;3.66;62.94;102707.31;2089923;28;20192;-69
2022/03/11 00:34:37;;;;;;;8.23;6.97;;;;;;;2.64;62.43;102551.13;2090111;28;20204;-69
2022/03/11 00:35:38;;;;;;;6.67;5.97;;;;;;;3.69;62.90;102717.59;2089454;28;20184;-69
2022/03/11 00:36:40;;;;;;;7.70;6.70;;;;;;;3.70;62.60;102718.41;2088037;28;20648;-69
2022/03/11 00:37:41;;;;;;;7.90;6.43;;;;;;;3.68;62.94;102717.91;2089316;28;20188;-69
2022/03/11 00:38:42;;;;;;;7.63;6.40;;;;;;;3.64;62.77;102717.78;2089263;28;20255;-69
2022/03/11 00:39:42;;;;;;;7.80;6.57;;;;;;;3.61;62.90;102709.44;2089950;28;20177;-69
2022/03/11 00:40:43;;;;;;;7.80;6.40;;;;;;;3.61;63.41;102718.47;2089954;28;20234;-69
2022/03/11 00:41:43;;;;;;;7.50;6.33;;;;;;;2.98;63.51;102614.66;2089331;28;20332;-69
2022/03/11 00:42:44;;;;;;;7.37;6.57;;;;;;;3.49;63.20;102710.16;2088747;28;20188;-69
2022/03/11 00:43:45;;;;;;;7.47;6.17;;;;;;;3.49;63.27;102712.91;2089913;28;20226;-69
2022/03/11 00:44:45;;;;;;;7.43;6.53;;;;;;;3.47;63.79;102717.94;2089714;28;20180;-69
2022/03/11 00:45:46;;;;;;;7.57;6.47;;;;;;;3.48;63.30;102715.97;2088994;28;20184;-69
2022/03/11 00:46:47;;;;;;;7.40;6.70;;;;;;;3.40;64.03;102701.22;2089411;28;20552;-69
2022/03/11 00:47:48;;;;;;;6.93;5.87;;;;;;;3.45;64.18;102722.94;2090047;28;20200;-69
2022/03/11 00:48:48;;;;;;;7.97;6.70;;;;;;;3.34;64.54;102699.00;2088989;28;20215;-69
2022/03/11 00:49:49;;;;;;;8.13;6.87;;;;;;;3.37;63.95;102720.25;2090042;28;20423;-69
2022/03/11 00:50:49;;;;;;;6.73;5.93;;;;;;;1.88;64.26;102479.31;2088930;28;20200;-69
2022/03/11 00:51:50;;;;;;;7.10;6.40;;;;;;;3.26;63.60;102719.06;2089197;28;20271;-69
2022/03/11 00:52:51;;;;;;;8.07;6.10;;;;;;;2.75;63.09;102656.38;2088615;28;20180;-69
2022/03/11 00:53:52;;;;;;;7.63;6.00;;;;;;;3.26;63.19;102727.28;2089805;28;20718;-69
2022/03/11 00:54:53;;;;;;;6.77;6.00;;;;;;;3.17;64.25;102724.59;2089252;28;20538;-69
2022/03/11 00:55:54;;;;;;;7.90;6.17;;;;;;;2.18;63.04;102556.69;2089244;28;20180;-69
2022/03/11 00:56:55;;;;;;;7.50;6.22;;;;;;;3.22;62.89;102726.31;2089396;28;20212;-69
2022/03/11 00:57:56;;;;;;;6.80;5.77;;;;;;;2.63;63.46;102629.69;2089841;28;20195;-69
2022/03/11 00:58:57;;;;;;;6.87;5.67;;;;;;;2.63;63.79;102632.41;2089275;28;20238;-68
2022/03/11 00:59:58;;;;;;;7.22;6.07;;;;;;;2.39;63.72;102590.38;2089292;28;20185;-69
2022/03/11 01:00:58;;;;;;;6.57;5.60;;;;;;;3.16;63.92;102714.78;2089751;28;20214;-69
2022/03/11 01:01:59;;;;;;;6.53;5.63;;;;;;;3.18;63.53;102739.09;2089769;28;20259;-69
2022/03/11 01:02:59;;;;;;;7.47;6.03;;;;;;;3.01;62.43;102717.25;2088964;28;20180;-69
2022/03/11 01:04:00;;;;;;;7.80;6.10;;;;;;;2.93;63.63;102727.13;2089074;28;20192;-69
2022/03/11 01:05:02;;;;;;;8.13;6.30;;;;;;;2.89;63.26;102722.66;2089989;28;20263;-69
2022/03/11 01:06:03;;;;;;;6.97;6.10;;;;;;;2.29;63.40;102649.03;2088835;28;20198;-69
2022/03/11 01:07:03;;;;;;;6.83;6.13;;;;;;;2.61;63.48;102714.09;2089579;28;20650;-69
2022/03/11 01:08:04;;;;;;;6.90;5.93;;;;;;;2.72;64.28;102723.53;2089450;28;20259;-69
2022/03/11 01:09:05;;;;;;;8.30;5.97;;;;;;;2.68;63.87;102721.78;2088988;28;20725;-69
2022/03/11 01:10:07;;;;;;;6.87;5.87;;;;;;;2.70;64.89;102723.06;2089636;28;20191;-69
2022/03/11 01:11:11;;;;;;;7.22;5.63;;;;;;;2.72;63.80;102720.78;2089601;28;20188;-69
2022/03/11 01:12:12;;;;;;;7.22;5.97;;;;;;;2.67;63.86;102717.44;2089429;28;20190;-68
2022/03/11 01:13:12;;;;;;;7.20;5.97;;;;;;;2.71;64.65;102723.84;2088495;28;20684;-69
2022/03/11 01:14:13;;;;;;;9.23;6.17;;;;;;;1.87;64.83;102608.13;2089636;28;20310;-69
2022/03/11 01:15:14;;;;;;;6.53;5.83;;;;;;;2.75;65.14;102727.53;2089587;28;20647;-69
2022/03/11 01:16:14;;;;;;;6.80;5.90;;;;;;;2.78;65.40;102730.44;2089021;28;20187;-69
2022/03/11 01:17:15;;;;;;;6.63;5.70;;;;;;;2.83;64.41;102729.47;2089372;28;20222;-69
2022/03/11 01:18:16;;;;;;;6.90;5.65;;;;;;;2.79;63.74;102729.31;2088731;28;20184;-69
2022/03/11 01:19:17;;;;;;;6.90;5.57;;;;;;;2.62;64.16;102723.91;2089655;28;20215;-69
2022/03/11 01:20:17;;;;;;;6.87;5.93;;;;;;;2.78;64.19;102727.69;2089621;28;20616;-68
2022/03/11 01:21:18;;;;;;;6.47;5.53;;;;;;;2.78;63.80;102726.91;2089727;28;20179;-69
2022/03/11 01:22:18;;;;;;;6.57;5.87;;;;;;;2.80;65.04;102730.91;2089102;28;20682;-69
2022/03/11 01:23:19;;;;;;;7.80;5.90;;;;;;;2.79;64.46;102726.56;2089034;28;20173;-70
2022/03/11 01:24:21;;;;;;;7.50;5.57;;;;;;;2.76;62.97;102727.22;2089552;28;20180;-69
2022/03/11 01:25:21;;;;;;;8.18;5.70;;;;;;;1.62;63.91;102573.47;2089162;28;20645;-69
2022/03/11 01:26:22;;;;;;;6.73;5.80;;;;;;;1.57;64.61;102552.59;2088527;28;20570;-69
2022/03/11 01:27:23;;;;;;;7.57;6.00;;;;;;;2.57;64.23;102707.66;2089561;28;20195;-68
2022/03/11 01:28:23;;;;;;;7.30;5.57;;;;;;;2.68;63.65;102727.25;2088963;28;20227;-69
2022/03/11 01:29:24;;;;;;;6.37;5.27;;;;;;;2.65;63.92;102728.72;2089717;28;20648;-69
2022/03/11 01:30:25;;;;;;;6.37;5.60;;;;;;;2.71;64.46;102732.88;2089664;28;20211;-69
2022/03/11 01:31:25;;;;;;;6.47;5.70;;;;;;;2.68;64.23;102736.25;2088906;28;20176;-69
2022/03/11 01:32:26;;;;;;;7.80;6.80;;;;;;;2.65;63.76;102728.72;2089146;28;20721;-69
2022/03/11 01:33:26;;;;;;;9.63;6.60;;;;;;;2.60;63.68;102731.66;2088252;28;20222;-69
2022/03/11 01:34:27;;;;;;;6.50;5.80;;;;;;;2.26;63.19;102681.72;2089651;28;20210;-69
2022/03/11 01:35:27;;;;;;;8.73;6.87;;;;;;;2.49;63.12;102735.88;2088567;28;20180;-69
2022/03/11 01:36:28;;;;;;;7.47;5.90;;;;;;;2.39;63.63;102722.53;2089234;28;20615;-69
2022/03/11 01:37:28;;;;;;;7.70;6.40;;;;;;;1.86;64.06;102642.84;2089426;28;20179;-69
2022/03/11 01:38:29;;;;;;;9.23;6.40;;;;;;;2.34;63.93;102713.69;2088853;28;20275;-69
2022/03/11 01:39:30;;;;;;;7.47;6.67;;;;;;;2.38;63.91;102734.63;2089416;28;20604;-69
2022/03/11 01:40:30;;;;;;;8.70;6.73;;;;;;;2.43;63.82;102736.38;2088975;28;20628;-69
2022/03/11 01:41:31;;;;;;;7.97;6.70;;;;;;;2.45;64.16;102728.63;2089429;28;20727;-69
2022/03/11 01:42:36;;;;;;;9.20;6.83;;;;;;;2.45;63.84;102729.44;2088848;28;20180;-69
2022/03/11 01:44:00;;;;;;;10.40;6.35;;;;;;;1.33;63.05;102579.63;2089551;28;20441;-69
2022/03/11 01:45:02;;;;;;;9.18;7.00;;;;;;;2.35;63.93;102734.44;2088933;28;20190;-69
2022/03/11 01:46:02;;;;;;;8.52;6.90;;;;;;;2.18;64.17;102731.75;2088484;28;20183;-69
2022/03/11 01:47:03;;;;;;;8.33;6.97;;;;;;;2.21;63.67;102729.16;2089428;28;20268;-69
2022/03/11 01:48:04;;;;;;;10.50;7.37;;;;;;;2.23;63.46;102731.59;2088989;28;20183;-69
2022/03/11 01:49:07;;;;;;;8.90;6.83;;;;;;;2.24;63.33;102728.53;2088833;28;20431;-69
2022/03/11 01:50:08;;;;;;;7.82;6.43;;;;;;;0.84;62.77;102525.53;2089367;28;20605;-68
2022/03/11 01:51:08;;;;;;;8.02;6.93;;;;;;;2.06;62.49;102731.63;2089130;28;20238;-68
2022/03/11 01:52:11;;;;;;;9.13;7.03;;;;;;;1.73;63.64;102694.97;2089383;28;20175;-69
2022/03/11 01:53:13;;;;;;;9.18;7.07;;;;;;;1.83;63.35;102714.59;2088889;28;20187;-68
2022/03/11 01:54:14;;;;;;;9.48;7.00;;;;;;;1.90;63.22;102730.53;2088007;28;20233;-68
2022/03/11 01:55:15;;;;;;;8.90;7.67;;;;;;;1.84;63.29;102731.78;2088580;28;20184;-69
2022/03/11 01:56:16;;;;;;;8.63;7.53;;;;;;;1.89;64.16;102720.69;2088553;28;20537;-68
2022/03/11 01:57:17;;;;;;;10.10;7.37;;;;;;;1.80;63.32;102731.66;2089291;28;20251;-69
2022/03/11 01:58:18;;;;;;;9.23;7.38;;;;;;;1.79;63.28;102727.31;2088239;28;20430;-69
2022/03/11 01:59:20;;;;;;;9.65;7.85;;;;;;;1.45;63.46;102680.06;2089396;28;20176;-69
2022/03/11 02:00:20;;;;;;;11.32;7.78;;;;;;;1.69;63.88;102719.44;2089234;28;20179;-69
2022/03/11 02:02:42;;;;;;;9.52;7.85;;;;;;;1.41;63.19;102715.41;2088176;28;20202;-69
2022/03/11 02:03:42;;;;;;;10.50;8.00;;;;;;;1.26;63.25;102702.22;2089194;28;20187;-69
2022/03/11 02:04:43;;;;;;;10.63;8.23;;;;;;;1.21;63.52;102691.44;2089214;28;20184;-69
2022/03/11 02:05:44;;;;;;;9.57;8.07;;;;;;;0.52;63.85;102593.38;2088967;28;20266;-69
2022/03/11 02:06:45;;;;;;;9.90;7.70;;;;;;;0.42;63.91;102564.44;2088754;28;20185;-69
2022/03/11 02:07:47;;;;;;;10.13;8.23;;;;;;;1.37;63.44;102710.91;2088760;28;20616;-68
2022/03/11 02:08:48;;;;;;;11.23;8.27;;;;;;;1.23;63.62;102710.25;2088553;28;20257;-69
2022/03/11 02:09:48;;;;;;;10.80;8.33;;;;;;;0.89;63.48;102667.28;2089351;28;20233;-69
2022/03/11 02:10:49;;;;;;;9.37;7.93;;;;;;;1.17;64.32;102714.25;2089120;28;20689;-69
2022/03/11 02:11:50;;;;;;;9.53;8.27;;;;;;;1.04;63.85;102696.06;2088677;28;20192;-68
2022/03/11 02:12:50;;;;;;;10.63;7.83;;;;;;;1.13;64.23;102705.88;2087912;28;20285;-69
2022/03/11 02:13:56;;;;;;;9.57;7.90;;;;;;;1.07;64.01;102704.44;2088569;28;20187;-68
2022/03/11 02:14:57;;;;;;;10.00;8.20;;;;;;;0.99;63.96;102707.16;2088613;28;20188;-69
2022/03/11 02:15:57;;;;;;;9.38;7.72;;;;;;;0.87;64.21;102710.47;2088002;28;20195;-69
2022/03/11 02:16:58;;;;;;;9.77;7.87;;;;;;;0.80;64.42;102715.59;2088599;28;20225;-68
2022/03/11 02:17:58;;;;;;;9.77;8.00;;;;;;;0.70;64.40;102693.25;2089181;28;20182;-69
2022/03/11 02:19:00;;;;;;;9.00;7.67;;;;;;;0.77;64.30;102712.72;2088474;28;20249;-68
2022/03/11 02:20:01;;;;;;;9.85;7.60;;;;;;;0.66;64.35;102692.25;2089247;28;20189;-69
2022/03/11 02:21:02;;;;;;;9.20;8.10;;;;;;;0.75;64.93;102720.38;2088604;28;20194;-68
2022/03/11 02:22:05;;;;;;;10.95;8.20;;;;;;;0.24;64.87;102655.53;2089052;28;20191;-69
2022/03/11 02:23:07;;;;;;;9.95;8.15;;;;;;;0.69;65.12;102724.38;2088423;28;20278;-69
2022/03/11 02:24:09;;;;;;;9.73;7.88;;;;;;;-0.51;64.27;102506.88;2089029;28;20651;-68
2022/03/11 02:25:10;;;;;;;9.85;7.80;;;;;;;0.91;64.35;102725.13;2088527;28;20249;-69
2022/03/11 02:26:12;;;;;;;10.03;7.90;;;;;;;0.98;64.57;102722.72;2088139;28;20187;-68
2022/03/11 02:27:12;;;;;;;10.20;8.10;;;;;;;1.04;64.83;102734.31;2089036;28;20655;-68
2022/03/11 02:28:13;;;;;;;9.00;7.13;;;;;;;1.02;64.01;102722.88;2088489;28;20572;-69
2022/03/11 02:29:13;;;;;;;9.27;7.57;;;;;;;1.00;64.48;102727.88;2089218;28;20178;-68
2022/03/11 02:30:20;;;;;;;11.47;7.87;;;;;;;1.12;64.80;102728.84;2088399;28;20190;-69
2022/03/11 02:31:22;;;;;;;10.25;7.35;;;;;;;1.22;64.51;102725.00;2088957;28;20235;-68
2022/03/11 02:32:22;;;;;;;8.25;7.07;;;;;;;1.05;64.04;102706.69;2088867;28;20560;-68
2022/03/11 02:33:23;;;;;;;10.63;7.33;;;;;;;1.28;64.00;102734.69;2088524;28;20273;-69
2022/03/11 02:34:23;;;;;;;8.97;7.03;;;;;;;1.32;62.91;102730.16;2088594;28;20683;-68
2022/03/11 02:35:24;;;;;;;9.17;7.70;;;;;;;1.35;63.37;102730.31;2088615;28;20179;-69
2022/03/11 02:36:25;;;;;;;10.80;7.80;;;;;;;1.07;62.65;102693.50;2088641;28;20568;-69
2022/03/11 02:37:25;;;;;;;9.77;7.80;;;;;;;0.23;62.59;102563.94;2088925;28;20199;-68
2022/03/11 02:38:27;;;;;;;10.00;7.33;;;;;;;1.27;62.83;102731.13;2088293;28;20575;-70
2022/03/11 02:39:27;;;;;;;13.15;7.82;;;;;;;1.25;63.63;102722.47;2088516;28;20321;-69
2022/03/11 02:40:28;;;;;;;9.30;7.83;;;;;;;1.43;62.48;102737.75;2089079;28;20414;-69
2022/03/11 02:41:28;;;;;;;10.10;7.87;;;;;;;1.52;62.22;102744.03;2088939;28;20711;-68
2022/03/11 02:42:29;;;;;;;9.23;7.93;;;;;;;1.60;62.46;102734.22;2088381;28;20287;-68
2022/03/11 02:43:29;;;;;;;9.93;7.60;;;;;;;1.66;61.92;102739.22;2088377;28;20267;-69
2022/03/11 02:44:31;;;;;;;8.97;7.07;;;;;;;1.70;61.82;102733.91;2088892;28;20191;-68
2022/03/11 02:45:31;;;;;;;10.05;7.40;;;;;;;1.71;62.51;102741.75;2088434;28;20188;-69
2022/03/11 02:46:32;;;;;;;9.23;7.60;;;;;;;1.70;61.89;102739.38;2088721;28;20185;-69
2022/03/11 02:47:33;;;;;;;10.50;7.40;;;;;;;1.30;61.92;102680.53;2088667;28;20172;-69
2022/03/11 02:48:34;;;;;;;8.27;7.10;;;;;;;1.07;62.10;102657.19;2088090;28;20633;-69
2022/03/11 02:49:34;;;;;;;11.83;7.57;;;;;;;1.70;61.80;102742.91;2089084;28;20430;-69
2022/03/11 02:50:35;;;;;;;9.77;7.63;;;;;;;1.72;62.02;102750.78;2089036;28;20207;-69
2022/03/11 02:51:35;;;;;;;10.60;7.73;;;;;;;1.75;62.18;102739.22;2088687;28;20293;-69
2022/03/11 02:52:36;;;;;;;11.07;7.63;;;;;;;1.25;61.98;102658.84;2087936;28;20187;-69
2022/03/11 02:53:40;;;;;;;7.93;7.03;;;;;;;1.84;61.74;102770.88;2088788;28;20661;-69
2022/03/11 02:54:41;;;;;;;9.15;7.68;;;;;;;1.87;61.14;102742.09;2088967;28;20179;-68
2022/03/11 02:55:42;;;;;;;10.17;7.40;;;;;;;1.82;61.35;102740.34;2087693;28;20266;-68
2022/03/11 02:56:42;;;;;;;9.83;7.67;;;;;;;1.41;61.29;102671.69;2087376;28;20220;-68
2022/03/11 02:57:43;;;;;;;9.83;7.37;;;;;;;1.88;61.43;102743.69;2088970;28;20186;-69
2022/03/11 02:58:43;;;;;;;8.77;6.97;;;;;;;1.84;61.13;102740.00;2088120;28;20245;-68
2022/03/11 02:59:45;;;;;;;9.27;7.23;;;;;;;1.78;60.10;102744.84;2088919;28;20582;-69
2022/03/11 03:00:46;;;;;;;8.93;7.45;;;;;;;1.75;59.68;102729.06;2088570;28;20192;-69
2022/03/11 03:01:46;;;;;;;10.60;7.13;;;;;;;1.77;59.83;102743.25;2088415;28;20699;-69
2022/03/11 03:02:47;;;;;;;8.37;7.20;;;;;;;1.76;60.04;102777.16;2088141;28;20191;-69
2022/03/11 03:03:48;;;;;;;8.03;7.10;;;;;;;1.70;60.30;102745.63;2088739;28;20551;-69
2022/03/11 03:04:48;;;;;;;10.00;7.30;;;;;;;1.61;59.90;102733.91;2088726;28;20612;-69
2022/03/11 03:05:49;;;;;;;9.80;7.40;;;;;;;1.74;59.88;102745.78;2087839;28;20192;-68
2022/03/11 03:06:50;;;;;;;9.47;6.87;;;;;;;1.76;59.25;102743.56;2088125;28;20233;-69
2022/03/11 03:07:50;;;;;;;8.48;6.78;;;;;;;1.71;59.04;102747.22;2088937;28;20634;-68
2022/03/11 03:08:51;;;;;;;10.47;7.40;;;;;;;1.67;59.23;102743.56;2088046;28;20182;-69
2022/03/11 03:09:52;;;;;;;8.00;6.77;;;;;;;1.54;59.39;102743.72;2088948;28;20275;-68
2022/03/11 03:10:52;;;;;;;9.20;6.90;;;;;;;1.53;59.02;102748.38;2088154;28;20466;-69
2022/03/11 03:11:53;;;;;;;8.97;7.07;;;;;;;1.51;58.89;102749.81;2088730;28;20308;-69
2022/03/11 03:12:53;;;;;;;8.67;7.00;;;;;;;1.38;59.22;102742.53;2087970;28;20229;-69
2022/03/11 03:13:54;;;;;;;8.40;6.73;;;;;;;1.47;59.38;102746.91;2088637;28;20240;-68
2022/03/11 03:14:54;;;;;;;9.80;6.93;;;;;;;0.48;59.34;102589.66;2088311;28;20404;-69
2022/03/11 03:15:55;;;;;;;8.57;6.97;;;;;;;1.44;59.23;102750.28;2088126;28;20568;-69
2022/03/11 03:16:55;;;;;;;8.33;7.00;;;;;;;1.48;59.68;102753.97;2088564;28;20193;-69
2022/03/11 03:17:56;;;;;;;9.50;7.43;;;;;;;1.49;59.37;102750.13;2088782;28;20183;-68
2022/03/11 03:18:56;;;;;;;8.07;6.80;;;;;;;1.06;59.40;102682.91;2088179;28;20673;-68
2022/03/11 03:19:57;;;;;;;9.33;7.23;;;;;;;1.51;59.87;102747.91;2088216;28;20195;-69
2022/03/11 03:20:58;;;;;;;10.90;7.60;;;;;;;-0.06;59.66;102522.78;2088607;28;20634;-69
2022/03/11 03:21:58;;;;;;;8.07;6.93;;;;;;;1.48;59.79;102758.63;2088853;28;20179;-68
2022/03/11 03:22:59;;;;;;;7.80;6.93;;;;;;;1.48;59.31;102753.97;2088166;28;20304;-69
2022/03/11 03:23:59;;;;;;;9.17;7.17;;;;;;;1.50;60.69;102757.19;2088225;28;20569;-69
2022/03/11 03:25:00;;;;;;;8.93;7.00;;;;;;;1.40;59.42;102748.50;2088683;28;20206;-69
2022/03/11 03:26:01;;;;;;;8.10;6.93;;;;;;;1.43;59.97;102762.34;2087921;28;20183;-68
2022/03/11 03:27:02;;;;;;;8.90;7.22;;;;;;;0.42;59.72;102601.84;2088477;28;20179;-68
2022/03/11 03:28:03;;;;;;;8.10;6.63;;;;;;;1.34;59.99;102788.03;2088557;28;20232;-69
2022/03/11 03:29:03;;;;;;;7.63;6.60;;;;;;;1.45;61.24;102773.75;2088153;28;20183;-68
2022/03/11 03:30:05;;;;;;;9.13;7.17;;;;;;;1.49;59.75;102769.25;2088768;28;20211;-69
2022/03/11 03:31:06;;;;;;;8.63;7.05;;;;;;;1.49;58.85;102769.25;2088696;28;20715;-68
2022/03/11 03:32:07;;;;;;;9.03;7.03;;;;;;;1.49;60.05;102771.97;2088694;28;20577;-68
2022/03/11 03:33:07;;;;;;;10.90;7.60;;;;;;;1.47;60.15;102792.56;2087521;28;20255;-69
2022/03/11 03:34:08;;;;;;;8.57;7.03;;;;;;;1.30;60.37;102751.56;2088398;28;20194;-69
2022/03/11 03:35:11;;;;;;;8.70;6.73;;;;;;;1.45;59.30;102772.94;2088822;28;20176;-69
2022/03/11 03:36:12;;;;;;;7.50;6.20;;;;;;;1.45;58.76;102773.75;2087494;28;20218;-68
2022/03/11 03:37:13;;;;;;;8.03;6.17;;;;;;;1.47;58.92;102776.16;2088762;28;20175;-68
2022/03/11 03:38:13;;;;;;;8.70;6.53;;;;;;;1.49;59.14;102768.47;2087479;28;20658;-68
2022/03/11 03:39:14;;;;;;;8.53;6.83;;;;;;;1.51;58.95;102771.66;2088774;28;20183;-68
2022/03/11 03:40:14;;;;;;;8.60;6.50;;;;;;;1.03;58.15;102697.22;2088750;28;20181;-69
2022/03/11 03:41:15;;;;;;;9.73;7.03;;;;;;;1.45;58.53;102765.53;2088749;28;20571;-68
2022/03/11 03:42:15;;;;;;;8.80;6.90;;;;;;;1.02;58.75;102706.50;2088102;28;20172;-69
2022/03/11 03:43:16;;;;;;;9.93;6.97;;;;;;;1.35;59.01;102767.78;2088137;28;20179;-68
2022/03/11 03:44:17;;;;;;;9.20;6.77;;;;;;;1.36;58.83;102764.75;2088667;28;20187;-68
2022/03/11 03:45:17;;;;;;;8.63;6.83;;;;;;;1.36;59.09;102767.47;2088354;28;20179;-69
2022/03/11 03:46:18;;;;;;;8.87;6.60;;;;;;;1.36;59.42;102769.41;2088018;28;20571;-69
2022/03/11 03:47:18;;;;;;;7.47;6.53;;;;;;;1.36;58.91;102772.13;2088149;28;20203;-68
2022/03/11 03:48:19;;;;;;;8.90;6.93;;;;;;;1.35;59.44;102768.56;2087843;28;20186;-71
2022/03/11 03:49:20;;;;;;;9.38;7.45;;;;;;;1.36;59.29;102770.22;2088706;28;20182;-70
2022/03/11 03:50:21;;;;;;;8.00;6.50;;;;;;;1.36;58.87;102764.75;2088628;28;20194;-70
2022/03/11 03:51:21;;;;;;;8.40;6.53;;;;;;;1.36;58.18;102764.75;2087853;28;20231;-70
2022/03/11 03:52:22;;;;;;;8.73;6.43;;;;;;;1.35;58.77;102767.78;2088470;28;20182;-70
2022/03/11 03:53:23;;;;;;;8.63;6.73;;;;;;;1.31;59.31;102773.09;2088424;28;20182;-71
2022/03/11 03:54:23;;;;;;;9.02;6.47;;;;;;;1.36;58.86;102772.94;2088588;28;20210;-70
2022/03/11 03:55:24;;;;;;;8.50;6.87;;;;;;;1.07;58.07;102725.47;2087689;28;20179;-70
2022/03/11 03:56:24;;;;;;;9.67;7.90;;;;;;;1.18;58.15;102749.44;2088620;28;20556;-70
2022/03/11 03:57:26;;;;;;;9.27;7.53;;;;;;;0.97;58.08;102728.47;2090054;28;20216;-70
2022/03/11 03:58:27;;;;;;;8.75;6.38;;;;;;;1.31;57.70;102773.09;2089614;28;21017;-71
2022/03/11 03:59:27;;;;;;;9.47;6.67;;;;;;;0.98;57.60;102714.53;2090306;28;20187;-70
2022/03/11 04:00:28;;;;;;;7.73;6.27;;;;;;;0.79;58.86;102686.72;2089640;28;20184;-71
2022/03/11 04:01:28;;;;;;;7.93;6.57;;;;;;;1.32;58.62;102768.41;2090248;28;20176;-70
2022/03/11 04:02:29;;;;;;;7.93;6.50;;;;;;;1.26;58.70;102762.31;2089543;28;20185;-70
2022/03/11 04:03:29;;;;;;;8.03;6.20;;;;;;;1.34;57.75;102766.97;2090057;28;20733;-71
2022/03/11 04:04:31;;;;;;;8.70;6.20;;;;;;;1.25;57.21;102754.44;2089693;28;20187;-70
2022/03/11 04:05:31;;;;;;;8.13;6.30;;;;;;;1.32;58.21;102777.44;2089517;28;20265;-70
2022/03/11 04:06:33;;;;;;;7.33;5.50;;;;;;;1.32;58.15;102771.16;2089956;28;20185;-71
2022/03/11 04:07:34;;;;;;;8.55;6.38;;;;;;;1.33;58.45;102767.28;2090012;28;20186;-71
2022/03/11 04:08:35;;;;;;;7.57;5.90;;;;;;;1.30;58.07;102771.47;2089549;28;20202;-70
2022/03/11 04:09:35;;;;;;;7.73;6.17;;;;;;;-0.28;58.36;102511.94;2089529;28;20265;-70
2022/03/11 04:10:36;;;;;;;6.90;5.80;;;;;;;1.33;57.31;102770.03;2090063;28;20202;-70
2022/03/11 04:11:37;;;;;;;7.70;5.63;;;;;;;1.32;56.15;102773.88;2090078;28;20208;-71
2022/03/11 04:12:38;;;;;;;8.10;6.20;;;;;;;1.12;56.08;102741.69;2089370;28;20491;-70
2022/03/11 04:13:38;;;;;;;9.13;6.68;;;;;;;1.26;56.48;102767.78;2089610;28;20270;-70
2022/03/11 04:14:39;;;;;;;7.93;5.90;;;;;;;1.22;57.04;102776.91;2090205;28;20192;-70
2022/03/11 04:15:39;;;;;;;8.03;5.87;;;;;;;1.20;56.99;102779.97;2089556;28;20688;-70
2022/03/11 04:16:40;;;;;;;8.07;6.27;;;;;;;1.14;57.00;102770.28;2089540;28;20211;-71
2022/03/11 04:17:41;;;;;;;8.17;6.30;;;;;;;1.12;56.94;102772.56;2089277;28;20699;-70
2022/03/11 04:18:41;;;;;;;7.50;5.87;;;;;;;1.15;58.34;102773.84;2088288;28;20182;-70
2022/03/11 04:19:42;;;;;;;8.97;6.57;;;;;;;1.12;57.17;102778.00;2090126;28;20179;-70
2022/03/11 04:20:42;;;;;;;7.43;5.97;;;;;;;0.04;57.80;102614.34;2090024;28;20251;-70
2022/03/11 04:21:42;;;;;;;7.10;6.03;;;;;;;0.86;57.98;102752.56;2089492;28;20537;-71
2022/03/11 04:22:45;;;;;;;7.73;6.00;;;;;;;1.01;56.72;102776.69;2088244;28;20187;-70
2022/03/11 04:23:48;;;;;;;8.15;6.18;;;;;;;0.95;57.09;102771.69;2090132;28;20565;-70
2022/03/11 04:24:49;;;;;;;8.27;6.60;;;;;;;0.96;58.11;102782.31;2089716;28;20260;-70
2022/03/11 04:25:49;;;;;;;9.23;6.50;;;;;;;0.95;56.63;102777.16;2089679;28;20268;-70
2022/03/11 04:26:50;;;;;;;8.07;6.10;;;;;;;0.96;56.17;102771.38;2089422;28;20245;-70
2022/03/11 04:27:51;;;;;;;8.10;6.30;;;;;;;0.88;56.54;102772.13;2089608;28;20194;-70
2022/03/11 04:28:51;;;;;;;6.90;5.80;;;;;;;0.89;56.47;102768.28;2089361;28;20179;-70
2022/03/11 04:29:52;;;;;;;7.13;5.93;;;;;;;0.89;56.25;102768.28;2090177;28;20201;-70
2022/03/11 04:30:52;;;;;;;9.87;5.60;;;;;;;0.84;56.36;102760.25;2089825;28;20234;-70
2022/03/11 04:31:54;;;;;;;10.33;6.10;;;;;;;-0.36;56.91;102586.25;2089289;28;20200;-70
2022/03/11 04:32:55;;;;;;;9.57;6.38;;;;;;;0.85;55.98;102772.78;2089204;28;20185;-70
2022/03/11 04:33:57;;;;;;;7.33;5.93;;;;;;;0.76;55.25;102765.66;2089327;28;20264;-70
2022/03/11 04:34:57;;;;;;;8.10;6.40;;;;;;;0.20;55.63;102687.25;2089404;28;20325;-71
2022/03/11 04:35:58;;;;;;;7.83;6.30;;;;;;;0.02;56.85;102671.13;2089098;28;20182;-70
2022/03/11 04:36:59;;;;;;;7.87;5.87;;;;;;;0.17;55.32;102685.13;2089114;28;20608;-70
2022/03/11 04:37:59;;;;;;;8.00;6.23;;;;;;;0.59;55.91;102771.06;2089953;28;20179;-70
2022/03/11 04:39:00;;;;;;;6.97;5.90;;;;;;;0.56;57.08;102769.75;2089175;28;20662;-70
2022/03/11 04:40:01;;;;;;;7.70;6.15;;;;;;;0.32;57.08;102752.94;2090006;28;20190;-70
2022/03/11 04:41:01;;;;;;;8.57;5.93;;;;;;;0.46;56.03;102750.09;2089398;28;20189;-70
2022/03/11 04:42:02;;;;;;;9.27;6.80;;;;;;;-0.54;56.17;102610.97;2089962;28;20691;-70
2022/03/11 04:43:03;;;;;;;8.13;6.40;;;;;;;-0.09;56.91;102670.56;2089269;28;20692;-70
2022/03/11 04:44:04;;;;;;;8.17;6.57;;;;;;;0.54;56.25;102782.91;2089896;28;20509;-70
2022/03/11 04:45:05;;;;;;;8.85;7.00;;;;;;;0.40;56.11;102763.09;2089395;28;20209;-71
2022/03/11 04:46:06;;;;;;;7.85;6.20;;;;;;;0.40;56.61;102765.81;2080726;28;20195;-70
2022/03/11 04:47:06;;;;;;;8.00;6.33;;;;;;;0.53;57.92;102775.03;2081512;28;20266;-70